createdAt,value
2022-08-19T00:00:55.941Z,29.90
2022-08-19T00:01:55.942Z,30.10
2022-08-19T00:02:55.954Z,28.90
2022-08-19T00:03:55.919Z,28.60
2022-08-19T00:04:55.930Z,28.50
2022-08-19T00:05:55.909Z,29.20
2022-08-19T00:06:55.883Z,28.90
2022-08-19T00:07:55.873Z,28.00
2022-08-19T00:08:55.872Z,28.80
2022-08-19T00:09:56.899Z,29.60
2022-08-19T00:10:55.864Z,29.40
2022-08-19T00:11:55.844Z,29.50
2022-08-19T00:12:55.864Z,28.40
2022-08-19T00:13:56.354Z,29.20
2022-08-19T00:14:55.827Z,29.40
2022-08-19T00:15:55.783Z,29.00
2022-08-19T00:16:55.848Z,29.60
2022-08-19T00:17:55.773Z,30.10
2022-08-19T00:18:55.754Z,29.60
2022-08-19T00:19:55.770Z,27.90
2022-08-19T00:20:55.764Z,28.70
2022-08-19T00:21:55.727Z,28.60
2022-08-19T00:22:55.723Z,29.20
2022-08-19T00:23:55.706Z,28.50
2022-08-19T00:24:55.709Z,28.90
2022-08-19T00:25:55.717Z,30.20
2022-08-19T00:26:55.676Z,28.60
2022-08-19T00:27:55.668Z,28.90
2022-08-19T00:28:55.657Z,28.60
2022-08-19T00:29:55.652Z,29.00
2022-08-19T00:30:55.652Z,30.00
2022-08-19T00:31:55.641Z,29.40
2022-08-19T00:32:55.613Z,28.70
2022-08-19T00:33:55.613Z,28.60
2022-08-19T00:34:55.592Z,28.80
2022-08-19T00:35:56.196Z,30.10
2022-08-19T00:36:55.603Z,28.70
2022-08-19T00:37:55.557Z,30.10
2022-08-19T00:38:55.553Z,29.50
2022-08-19T00:39:55.597Z,29.00
2022-08-19T00:40:55.541Z,28.50
2022-08-19T00:41:55.546Z,30.90
2022-08-19T00:42:55.521Z,30.00
2022-08-19T00:43:55.510Z,30.40
2022-08-19T00:44:55.514Z,29.10
2022-08-19T00:45:55.492Z,30.00
2022-08-19T00:46:58.132Z,29.00
2022-08-19T00:47:55.485Z,30.20
2022-08-19T00:48:55.471Z,29.70
2022-08-19T00:49:55.454Z,31.40
2022-08-19T00:50:55.435Z,29.00
2022-08-19T00:51:55.441Z,29.10
2022-08-19T00:52:55.408Z,30.00
2022-08-19T00:53:55.394Z,30.20
2022-08-19T00:54:55.420Z,30.40
2022-08-19T00:55:55.380Z,28.80
2022-08-19T00:56:55.372Z,30.20
2022-08-19T00:57:55.376Z,29.10
2022-08-19T00:59:56.152Z,30.90
2022-08-19T01:00:02.438Z,30.90
2022-08-19T01:00:56.383Z,31.20
2022-08-19T01:01:55.385Z,30.30
2022-08-19T01:02:55.426Z,30.70
2022-08-19T01:03:58.218Z,30.80
2022-08-19T01:04:55.293Z,30.00
2022-08-19T01:05:55.293Z,29.30
2022-08-19T01:06:55.291Z,29.40
2022-08-19T01:07:55.263Z,31.30
2022-08-19T01:08:55.257Z,31.40
2022-08-19T01:09:55.249Z,30.60
2022-08-19T01:10:55.252Z,33.00
2022-08-19T01:11:55.217Z,30.20
2022-08-19T01:12:55.209Z,29.90
2022-08-19T01:13:55.198Z,29.50
2022-08-19T01:14:55.187Z,30.40
2022-08-19T01:15:55.198Z,31.80
2022-08-19T01:16:55.185Z,29.40
2022-08-19T01:17:55.186Z,28.60
2022-08-19T01:18:55.150Z,29.10
2022-08-19T01:19:55.168Z,28.70
2022-08-19T01:20:55.153Z,29.90
2022-08-19T01:21:55.127Z,29.40
2022-08-19T01:22:55.118Z,28.40
2022-08-19T01:23:55.142Z,30.70
2022-08-19T01:24:55.309Z,29.10
2022-08-19T01:25:55.087Z,28.70
2022-08-19T01:26:55.084Z,28.70
2022-08-19T01:27:55.055Z,28.70
2022-08-19T01:28:58.347Z,27.50
2022-08-19T01:29:56.050Z,28.50
2022-08-19T01:30:55.037Z,28.10
2022-08-19T01:31:55.023Z,27.60
2022-08-19T01:32:55.152Z,28.60
2022-08-19T01:33:55.008Z,27.70
2022-08-19T01:34:54.984Z,27.60
2022-08-19T01:35:54.990Z,28.00
2022-08-19T01:36:54.975Z,27.90
2022-08-19T01:37:54.977Z,27.80
2022-08-19T01:38:54.956Z,26.80
2022-08-19T01:39:55.002Z,25.60
2022-08-19T01:40:54.943Z,27.30
2022-08-19T01:41:54.918Z,27.60
2022-08-19T01:42:55.183Z,27.70
2022-08-19T01:44:03.266Z,25.60
2022-08-19T01:44:54.938Z,26.30
2022-08-19T01:45:54.889Z,26.10
2022-08-19T01:46:54.891Z,26.40
2022-08-19T01:48:01.504Z,26.70
2022-08-19T01:48:54.862Z,27.50
2022-08-19T01:49:54.846Z,27.80
2022-08-19T01:50:54.878Z,26.80
2022-08-19T01:51:54.853Z,29.80
2022-08-19T01:52:54.838Z,26.70
2022-08-19T01:53:54.798Z,27.70
2022-08-19T01:54:54.826Z,29.00
2022-08-19T01:55:54.785Z,28.80
2022-08-19T01:56:54.777Z,27.80
2022-08-19T01:57:54.769Z,27.50
2022-08-19T01:58:54.753Z,28.60
2022-08-19T01:59:54.759Z,29.20
2022-08-19T02:00:54.724Z,27.50
2022-08-19T02:01:54.722Z,28.60
2022-08-19T02:02:54.918Z,27.90
2022-08-19T02:03:54.704Z,28.00
2022-08-19T02:04:54.713Z,28.00
2022-08-19T02:05:54.684Z,25.90
2022-08-19T02:06:54.683Z,26.80
2022-08-19T02:07:54.676Z,26.50
2022-08-19T02:08:57.450Z,29.30
2022-08-19T02:09:54.645Z,23.90
2022-08-19T02:10:54.624Z,25.00
2022-08-19T02:11:54.641Z,25.30
2022-08-19T02:12:54.863Z,25.50
2022-08-19T02:13:54.602Z,24.20
2022-08-19T02:14:54.595Z,30.90
2022-08-19T02:15:54.592Z,25.90
2022-08-19T02:16:54.586Z,30.80
2022-08-19T02:17:54.566Z,25.10
2022-08-19T02:18:54.559Z,23.60
2022-08-19T02:19:54.554Z,26.40
2022-08-19T02:20:54.543Z,22.00
2022-08-19T02:21:54.519Z,23.60
2022-08-19T02:22:54.715Z,20.80
2022-08-19T02:23:54.504Z,37.70
2022-08-19T02:24:54.517Z,21.90
2022-08-19T02:25:54.499Z,22.10
2022-08-19T02:26:54.474Z,21.70
2022-08-19T02:27:54.464Z,22.10
2022-08-19T02:28:54.452Z,21.80
2022-08-19T02:29:54.463Z,22.60
2022-08-19T02:30:54.442Z,22.40
2022-08-19T02:31:54.431Z,23.50
2022-08-19T02:32:54.462Z,23.50
2022-08-19T02:33:56.551Z,22.20
2022-08-19T02:34:54.428Z,24.10
2022-08-19T02:35:54.429Z,24.00
2022-08-19T02:36:54.398Z,22.60
2022-08-19T02:37:54.364Z,23.40
2022-08-19T02:38:55.529Z,24.30
2022-08-19T02:39:54.373Z,23.30
2022-08-19T02:40:54.359Z,23.30
2022-08-19T02:41:54.351Z,24.00
2022-08-19T02:42:54.521Z,24.20
2022-08-19T02:44:30.284Z,24.10
2022-08-19T02:44:55.313Z,24.00
2022-08-19T02:45:54.288Z,24.30
2022-08-19T02:46:54.279Z,25.50
2022-08-19T02:47:55.293Z,26.10
2022-08-19T02:48:54.292Z,27.90
2022-08-19T02:49:54.267Z,28.40
2022-08-19T02:50:54.241Z,28.90
2022-08-19T02:51:54.235Z,28.40
2022-08-19T02:52:54.375Z,28.00
2022-08-19T02:53:54.222Z,26.40
2022-08-19T02:54:54.227Z,27.00
2022-08-19T02:55:54.187Z,27.80
2022-08-19T02:56:54.212Z,28.10
2022-08-19T02:57:54.173Z,27.60
2022-08-19T02:58:54.154Z,27.50
2022-08-19T02:59:54.149Z,28.80
2022-08-19T03:00:54.275Z,27.90
2022-08-19T03:01:54.157Z,28.60
2022-08-19T03:02:54.366Z,27.70
2022-08-19T03:03:54.116Z,27.60
2022-08-19T03:04:54.125Z,27.50
2022-08-19T03:05:56.984Z,27.40
2022-08-19T03:06:54.081Z,27.30
2022-08-19T03:07:54.076Z,27.70
2022-08-19T03:08:54.064Z,29.40
2022-08-19T03:09:54.064Z,27.90
2022-08-19T03:10:54.186Z,28.80
2022-08-19T03:11:54.055Z,27.50
2022-08-19T03:12:54.207Z,26.20
2022-08-19T03:13:54.014Z,26.20
2022-08-19T03:14:54.017Z,26.00
2022-08-19T03:15:54.043Z,26.30
2022-08-19T03:16:54.034Z,24.70
2022-08-19T03:17:53.988Z,27.10
2022-08-19T03:18:53.969Z,26.80
2022-08-19T03:19:54.001Z,26.90
2022-08-19T03:20:53.946Z,28.00
2022-08-19T03:21:53.944Z,27.80
2022-08-19T03:22:54.111Z,28.10
2022-08-19T03:23:53.918Z,26.10
2022-08-19T03:24:53.931Z,27.10
2022-08-19T03:26:03.042Z,27.40
2022-08-19T03:26:54.900Z,26.50
2022-08-19T03:27:53.879Z,26.10
2022-08-19T03:28:58.618Z,25.10
2022-08-19T03:29:54.874Z,25.70
2022-08-19T03:30:53.845Z,24.90
2022-08-19T03:31:53.832Z,24.80
2022-08-19T03:32:57.307Z,26.60
2022-08-19T03:33:53.814Z,27.10
2022-08-19T03:34:53.838Z,27.30
2022-08-19T03:35:53.815Z,27.30
2022-08-19T03:36:53.786Z,26.40
2022-08-19T03:37:53.771Z,27.90
2022-08-19T03:38:56.384Z,26.00
2022-08-19T03:39:54.798Z,26.40
2022-08-19T03:40:53.747Z,26.90
2022-08-19T03:42:33.167Z,26.10
2022-08-19T03:42:54.727Z,26.70
2022-08-19T03:43:53.714Z,26.60
2022-08-19T03:44:53.707Z,26.30
2022-08-19T03:45:53.739Z,27.60
2022-08-19T03:46:53.703Z,27.20
2022-08-19T03:47:53.687Z,28.20
2022-08-19T03:48:53.680Z,34.30
2022-08-19T03:49:53.680Z,25.70
2022-08-19T03:50:53.663Z,26.20
2022-08-19T03:51:53.634Z,26.30
2022-08-19T03:52:53.907Z,26.60
2022-08-19T03:53:53.620Z,26.20
2022-08-19T03:54:54.611Z,26.20
2022-08-19T03:55:53.604Z,28.70
2022-08-19T03:56:53.584Z,36.30
2022-08-19T03:57:58.621Z,26.80
2022-08-19T03:58:55.589Z,26.90
2022-08-19T03:59:53.557Z,27.20
2022-08-19T04:00:53.621Z,27.40
2022-08-19T04:01:53.546Z,26.60
2022-08-19T04:02:58.438Z,31.70
2022-08-19T04:03:54.551Z,26.00
2022-08-19T04:04:53.522Z,26.20
2022-08-19T04:05:53.506Z,26.10
2022-08-19T04:06:53.545Z,26.30
2022-08-19T04:07:53.479Z,25.40
2022-08-19T04:08:53.473Z,27.00
2022-08-19T04:09:53.464Z,25.60
2022-08-19T04:10:53.457Z,25.10
2022-08-19T04:11:53.465Z,25.60
2022-08-19T04:12:53.689Z,25.20
2022-08-19T04:13:53.435Z,25.40
2022-08-19T04:14:53.413Z,29.40
2022-08-19T04:15:53.409Z,25.30
2022-08-19T04:16:53.402Z,25.10
2022-08-19T04:17:53.422Z,24.00
2022-08-19T04:18:53.374Z,25.60
2022-08-19T04:19:53.372Z,24.50
2022-08-19T04:20:53.358Z,25.10
2022-08-19T04:21:53.355Z,24.10
2022-08-19T04:22:53.536Z,22.90
2022-08-19T04:23:53.328Z,25.20
2022-08-19T04:24:53.317Z,24.10
2022-08-19T04:25:53.312Z,26.90
2022-08-19T04:26:53.303Z,24.20
2022-08-19T04:27:53.300Z,24.00
2022-08-19T04:28:53.279Z,25.10
2022-08-19T04:29:53.291Z,29.00
2022-08-19T04:30:53.256Z,24.20
2022-08-19T04:31:53.268Z,25.20
2022-08-19T04:32:53.372Z,24.10
2022-08-19T04:33:53.214Z,24.30
2022-08-19T04:35:01.208Z,24.80
2022-08-19T04:35:53.198Z,23.80
2022-08-19T04:36:53.201Z,23.70
2022-08-19T04:37:53.188Z,23.50
2022-08-19T04:38:53.161Z,23.50
2022-08-19T04:39:53.200Z,22.40
2022-08-19T04:40:54.173Z,22.60
2022-08-19T04:41:53.149Z,22.00
2022-08-19T04:42:53.268Z,23.70
2022-08-19T04:43:53.129Z,21.50
2022-08-19T04:44:53.106Z,22.40
2022-08-19T04:45:53.091Z,21.00
2022-08-19T04:46:53.101Z,20.60
2022-08-19T04:47:58.914Z,20.10
2022-08-19T04:48:54.061Z,20.90
2022-08-19T04:49:53.065Z,20.00
2022-08-19T04:50:53.052Z,20.30
2022-08-19T04:51:53.035Z,22.20
2022-08-19T04:52:53.156Z,21.60
2022-08-19T04:53:53.044Z,22.30
2022-08-19T04:54:53.005Z,22.30
2022-08-19T04:55:52.990Z,23.00
2022-08-19T04:56:52.993Z,22.50
2022-08-19T04:57:52.976Z,22.30
2022-08-19T04:58:52.997Z,22.90
2022-08-19T04:59:52.967Z,22.80
2022-08-19T05:00:53.015Z,23.20
2022-08-19T05:01:52.943Z,21.70
2022-08-19T05:02:53.067Z,20.40
2022-08-19T05:03:52.933Z,18.70
2022-08-19T05:04:52.921Z,14.90
2022-08-19T05:05:52.896Z,17.30
2022-08-19T05:06:52.913Z,17.40
2022-08-19T05:07:52.886Z,17.10
2022-08-19T05:08:52.871Z,14.30
2022-08-19T05:09:58.215Z,13.80
2022-08-19T05:10:52.850Z,13.10
2022-08-19T05:11:52.837Z,16.80
2022-08-19T05:12:53.007Z,14.30
2022-08-19T05:13:52.823Z,13.70
2022-08-19T05:14:52.842Z,19.90
2022-08-19T05:15:52.800Z,17.60
2022-08-19T05:17:06.435Z,21.90
2022-08-19T05:17:54.775Z,16.60
2022-08-19T05:18:52.768Z,16.10
2022-08-19T05:19:52.767Z,12.00
2022-08-19T05:20:52.776Z,11.40
2022-08-19T05:21:52.736Z,10.30
2022-08-19T05:22:52.858Z,10.60
2022-08-19T05:23:52.717Z,11.20
2022-08-19T05:25:11.745Z,10.00
2022-08-19T05:25:54.731Z,10.10
2022-08-19T05:26:52.695Z,8.20
2022-08-19T05:27:52.695Z,9.20
2022-08-19T05:28:54.731Z,13.10
2022-08-19T05:29:53.663Z,9.50
2022-08-19T05:30:52.678Z,11.60
2022-08-19T05:31:52.654Z,10.00
2022-08-19T05:32:54.045Z,10.10
2022-08-19T05:33:52.622Z,9.80
2022-08-19T05:34:52.645Z,9.40
2022-08-19T05:35:52.606Z,8.60
2022-08-19T05:36:52.592Z,10.50
2022-08-19T05:37:54.867Z,10.30
2022-08-19T05:38:52.589Z,12.50
2022-08-19T05:39:52.584Z,12.00
2022-08-19T05:40:52.544Z,9.90
2022-08-19T05:41:52.556Z,10.30
2022-08-19T05:42:54.786Z,9.70
2022-08-19T05:43:52.514Z,10.00
2022-08-19T05:44:52.519Z,10.40
2022-08-19T05:45:52.523Z,11.10
2022-08-19T05:46:52.495Z,15.00
2022-08-19T05:47:52.486Z,12.30
2022-08-19T05:48:52.461Z,10.80
2022-08-19T05:49:52.475Z,10.80
2022-08-19T05:50:52.491Z,11.80
2022-08-19T05:51:52.434Z,10.50
2022-08-19T05:52:52.538Z,10.60
2022-08-19T05:53:52.424Z,10.80
2022-08-19T05:54:52.413Z,11.30
2022-08-19T05:55:52.397Z,11.70
2022-08-19T05:56:52.411Z,10.50
2022-08-19T05:57:52.376Z,15.50
2022-08-19T05:58:52.375Z,10.40
2022-08-19T05:59:57.876Z,9.70
2022-08-19T06:00:52.345Z,18.10
2022-08-19T06:01:52.363Z,9.60
2022-08-19T06:02:52.616Z,10.10
2022-08-19T06:03:52.304Z,9.60
2022-08-19T06:04:52.289Z,14.80
2022-08-19T06:05:53.289Z,9.50
2022-08-19T06:06:52.306Z,9.30
2022-08-19T06:07:52.321Z,11.00
2022-08-19T06:08:52.275Z,9.70
2022-08-19T06:09:59.983Z,9.00
2022-08-19T06:10:53.244Z,10.90
2022-08-19T06:11:55.752Z,9.10
2022-08-19T06:12:53.211Z,9.70
2022-08-19T06:13:52.234Z,11.20
2022-08-19T06:14:56.032Z,9.60
2022-08-19T06:15:53.215Z,9.80
2022-08-19T06:16:52.186Z,9.30
2022-08-19T06:17:52.232Z,10.10
2022-08-19T06:18:52.183Z,10.00
2022-08-19T06:19:52.152Z,10.90
2022-08-19T06:20:55.897Z,8.60
2022-08-19T06:21:52.129Z,8.00
2022-08-19T06:22:52.118Z,7.30
2022-08-19T06:23:52.132Z,10.60
2022-08-19T06:24:52.102Z,11.10
2022-08-19T06:25:52.099Z,7.50
2022-08-19T06:26:52.116Z,8.70
2022-08-19T06:28:13.964Z,8.30
2022-08-19T06:28:54.084Z,7.90
2022-08-19T06:29:52.054Z,11.30
2022-08-19T06:30:52.037Z,9.40
2022-08-19T06:31:52.048Z,5.70
2022-08-19T06:32:52.045Z,9.00
2022-08-19T06:33:52.012Z,8.70
2022-08-19T06:34:51.998Z,7.20
2022-08-19T06:35:51.988Z,14.00
2022-08-19T06:36:51.979Z,8.00
2022-08-19T06:37:52.012Z,6.00
2022-08-19T06:38:51.960Z,10.60
2022-08-19T06:39:52.063Z,5.80
2022-08-19T06:40:51.940Z,4.80
2022-08-19T06:41:55.420Z,5.90
2022-08-19T06:42:54.701Z,8.40
2022-08-19T06:43:54.123Z,8.00
2022-08-19T06:44:53.093Z,4.70
2022-08-19T06:45:51.870Z,4.50
2022-08-19T06:46:53.543Z,4.40
2022-08-19T06:47:51.874Z,5.50
2022-08-19T06:48:51.885Z,4.30
2022-08-19T06:49:51.847Z,8.40
2022-08-19T06:50:51.831Z,4.20
2022-08-19T06:51:51.972Z,3.40
2022-08-19T06:52:51.834Z,3.60
2022-08-19T06:54:55.921Z,4.00
2022-08-19T06:55:51.797Z,3.80
2022-08-19T06:56:51.809Z,4.30
2022-08-19T06:57:52.016Z,6.90
2022-08-19T06:59:23.653Z,5.50
2022-08-19T06:59:51.781Z,3.80
2022-08-19T07:00:51.748Z,4.40
2022-08-19T07:01:51.749Z,3.30
2022-08-19T07:02:56.133Z,7.60
2022-08-19T07:03:52.705Z,3.10
2022-08-19T07:04:52.761Z,4.10
2022-08-19T07:05:51.684Z,3.80
2022-08-19T07:06:55.098Z,3.40
2022-08-19T07:07:51.668Z,3.30
2022-08-19T07:08:51.668Z,5.90
2022-08-19T07:09:58.607Z,12.70
2022-08-19T07:10:52.654Z,3.20
2022-08-19T07:11:51.627Z,3.70
2022-08-19T07:12:51.691Z,3.20
2022-08-19T07:13:51.621Z,3.10
2022-08-19T07:14:51.609Z,4.50
2022-08-19T07:15:51.584Z,3.30
2022-08-19T07:16:51.621Z,11.90
2022-08-19T07:17:52.464Z,3.60
2022-08-19T07:18:51.567Z,11.40
2022-08-19T07:19:51.556Z,3.30
2022-08-19T07:20:51.571Z,3.40
2022-08-19T07:21:51.534Z,3.10
2022-08-19T07:22:51.550Z,3.10
2022-08-19T07:23:51.526Z,3.20
2022-08-19T07:24:51.846Z,3.50
2022-08-19T07:25:53.064Z,3.60
2022-08-19T07:26:51.934Z,3.20
2022-08-19T07:27:54.382Z,3.30
2022-08-19T07:28:52.862Z,3.10
2022-08-19T07:29:56.025Z,4.10
2022-08-19T07:30:51.440Z,3.80
2022-08-19T07:31:51.430Z,3.30
2022-08-19T07:32:51.440Z,16.00
2022-08-19T07:33:51.420Z,3.60
2022-08-19T07:34:51.398Z,3.30
2022-08-19T07:35:51.412Z,6.70
2022-08-19T07:36:51.387Z,3.50
2022-08-19T07:37:51.369Z,3.50
2022-08-19T07:38:51.369Z,4.00
2022-08-19T07:39:51.402Z,2.80
2022-08-19T07:40:51.349Z,22.70
2022-08-19T07:41:51.334Z,3.20
2022-08-19T07:42:51.323Z,4.20
2022-08-19T07:43:51.320Z,4.00
2022-08-19T07:44:51.309Z,4.20
2022-08-19T07:45:51.302Z,3.50
2022-08-19T07:46:53.199Z,2.90
2022-08-19T07:47:51.456Z,3.30
2022-08-19T07:48:51.265Z,3.40
2022-08-19T07:49:51.276Z,3.10
2022-08-19T07:50:51.284Z,3.10
2022-08-19T07:51:51.223Z,2.70
2022-08-19T07:52:51.217Z,2.70
2022-08-19T07:53:51.214Z,3.80
2022-08-19T07:54:51.225Z,4.90
2022-08-19T07:55:51.207Z,3.90
2022-08-19T07:56:51.204Z,2.60
2022-08-19T07:57:51.179Z,2.70
2022-08-19T07:58:51.207Z,2.80
2022-08-19T07:59:51.144Z,3.70
2022-08-19T08:00:51.164Z,2.60
2022-08-19T08:01:51.227Z,2.60
2022-08-19T08:02:51.115Z,2.90
2022-08-19T08:03:51.137Z,2.70
2022-08-19T08:04:51.100Z,2.70
2022-08-19T08:05:51.089Z,2.70
2022-08-19T08:06:51.078Z,2.60
2022-08-19T08:07:51.067Z,3.00
2022-08-19T08:08:51.082Z,3.20
2022-08-19T08:09:51.121Z,2.90
2022-08-19T08:10:54.647Z,2.90
2022-08-19T08:11:52.032Z,2.60
2022-08-19T08:13:09.634Z,3.10
2022-08-19T08:14:00.367Z,2.90
2022-08-19T08:14:52.005Z,2.30
2022-08-19T08:15:52.207Z,2.90
2022-08-19T08:16:50.999Z,3.10
2022-08-19T08:17:51.748Z,3.00
2022-08-19T08:18:53.232Z,3.40
2022-08-19T08:19:50.964Z,3.00
2022-08-19T08:20:50.942Z,2.90
2022-08-19T08:21:50.948Z,3.40
2022-08-19T08:22:50.925Z,3.90
2022-08-19T08:23:54.363Z,2.80
2022-08-19T08:24:51.933Z,3.00
2022-08-19T08:25:50.883Z,4.40
2022-08-19T08:26:52.000Z,3.20
2022-08-19T08:27:51.010Z,2.90
2022-08-19T08:28:50.891Z,3.10
2022-08-19T08:29:50.864Z,2.70
2022-08-19T08:30:50.942Z,2.80
2022-08-19T08:31:59.599Z,2.90
2022-08-19T08:32:51.841Z,3.00
2022-08-19T08:33:50.819Z,2.90
2022-08-19T08:34:52.394Z,2.80
2022-08-19T08:35:51.793Z,2.80
2022-08-19T08:36:50.791Z,2.80
2022-08-19T08:37:51.346Z,3.00
2022-08-19T08:39:50.873Z,2.80
2022-08-19T08:40:50.736Z,2.70
2022-08-19T08:41:51.731Z,2.90
2022-08-19T08:42:50.735Z,2.80
2022-08-19T08:43:50.730Z,3.00
2022-08-19T08:44:50.757Z,2.70
2022-08-19T08:45:53.515Z,2.90
2022-08-19T08:46:52.869Z,3.20
2022-08-19T08:47:50.747Z,2.70
2022-08-19T08:48:52.785Z,2.70
2022-08-19T08:49:51.311Z,3.20
2022-08-19T08:50:50.636Z,3.00
2022-08-19T08:51:59.530Z,3.40
2022-08-19T08:52:51.699Z,3.60
2022-08-19T08:53:51.620Z,3.10
2022-08-19T08:54:55.188Z,3.70
2022-08-19T08:55:50.590Z,3.00
2022-08-19T08:56:51.534Z,3.50
2022-08-19T08:57:50.585Z,2.90
2022-08-19T08:58:54.464Z,3.00
2022-08-19T08:59:51.582Z,3.10
2022-08-19T09:00:50.551Z,3.00
2022-08-19T09:01:50.625Z,3.30
2022-08-19T09:02:51.615Z,3.80
2022-08-19T09:03:50.515Z,2.90
2022-08-19T09:04:50.510Z,2.70
2022-08-19T09:05:50.520Z,3.00
2022-08-19T09:06:50.495Z,3.30
2022-08-19T09:07:50.888Z,3.00
2022-08-19T09:08:50.487Z,2.70
2022-08-19T09:09:50.455Z,3.10
2022-08-19T09:10:55.181Z,3.10
2022-08-19T09:11:51.445Z,3.00
2022-08-19T09:12:50.427Z,2.80
2022-08-19T09:13:50.432Z,3.20
2022-08-19T09:14:51.850Z,3.00
2022-08-19T09:15:50.423Z,3.30
2022-08-19T09:16:50.392Z,2.70
2022-08-19T09:17:50.426Z,2.70
2022-08-19T09:18:50.367Z,2.70
2022-08-19T09:19:50.359Z,2.70
2022-08-19T09:20:50.378Z,3.10
2022-08-19T09:21:50.338Z,3.10
2022-08-19T09:22:50.333Z,2.80
2022-08-19T09:23:51.016Z,3.00
2022-08-19T09:24:50.308Z,3.00
2022-08-19T09:25:50.299Z,3.00
2022-08-19T09:26:52.629Z,2.90
2022-08-19T09:27:50.295Z,2.60
2022-08-19T09:28:50.271Z,3.10
2022-08-19T09:29:50.271Z,3.00
2022-08-19T09:30:50.272Z,2.80
2022-08-19T09:31:50.253Z,3.20
2022-08-19T09:32:52.892Z,2.90
2022-08-19T09:33:50.219Z,2.70
2022-08-19T09:34:51.313Z,2.60
2022-08-19T09:35:53.103Z,3.20
2022-08-19T09:36:50.193Z,2.90
2022-08-19T09:37:50.246Z,2.50
2022-08-19T09:38:50.202Z,2.70
2022-08-19T09:39:50.199Z,2.70
2022-08-19T09:40:50.174Z,2.80
2022-08-19T09:41:51.287Z,2.70
2022-08-19T09:42:52.574Z,2.80
2022-08-19T09:43:50.127Z,2.70
2022-08-19T09:44:50.110Z,2.60
2022-08-19T09:45:50.126Z,2.70
2022-08-19T09:46:50.091Z,2.40
2022-08-19T09:47:50.140Z,2.70
2022-08-19T09:48:50.072Z,2.50
2022-08-19T09:49:50.065Z,2.20
2022-08-19T09:50:51.707Z,2.50
2022-08-19T09:51:51.156Z,2.50
2022-08-19T09:52:55.335Z,2.50
2022-08-19T09:53:51.041Z,2.50
2022-08-19T09:54:51.986Z,2.20
2022-08-19T09:55:50.006Z,2.40
2022-08-19T09:56:50.021Z,2.80
2022-08-19T09:57:50.043Z,2.20
2022-08-19T09:58:49.983Z,2.90
2022-08-19T09:59:49.968Z,2.40
2022-08-19T10:00:51.527Z,2.20
2022-08-19T10:01:49.966Z,2.50
2022-08-19T10:02:49.946Z,2.40
2022-08-19T10:03:49.933Z,2.60
2022-08-19T10:04:49.912Z,2.80
2022-08-19T10:05:49.989Z,2.20
2022-08-19T10:06:53.401Z,2.60
2022-08-19T10:07:49.957Z,2.50
2022-08-19T10:08:50.662Z,2.60
2022-08-19T10:09:49.880Z,2.60
2022-08-19T10:10:49.872Z,2.50
2022-08-19T10:11:55.029Z,2.30
2022-08-19T10:12:50.870Z,2.20
2022-08-19T10:13:49.838Z,2.20
2022-08-19T10:14:49.821Z,2.20
2022-08-19T10:15:49.823Z,2.20
2022-08-19T10:16:49.819Z,2.50
2022-08-19T10:17:54.956Z,2.30
2022-08-19T10:18:49.913Z,2.30
2022-08-19T10:19:55.554Z,2.20
2022-08-19T10:20:51.287Z,2.20
2022-08-19T10:21:49.770Z,2.80
2022-08-19T10:22:51.854Z,2.60
2022-08-19T10:23:49.752Z,2.30
2022-08-19T10:24:49.747Z,2.50
2022-08-19T10:25:49.728Z,2.30
2022-08-19T10:26:55.876Z,2.40
2022-08-19T10:27:52.979Z,2.50
2022-08-19T10:28:50.689Z,2.50
2022-08-19T10:29:49.705Z,2.00
2022-08-19T10:30:49.664Z,2.30
2022-08-19T10:32:00.126Z,2.20
2022-08-19T10:32:50.659Z,2.30
2022-08-19T10:33:53.908Z,2.10
2022-08-19T10:34:49.635Z,1.80
2022-08-19T10:35:56.919Z,2.10
2022-08-19T10:36:56.357Z,2.50
2022-08-19T10:37:57.375Z,2.30
2022-08-19T10:38:54.809Z,2.50
2022-08-19T10:39:49.629Z,1.80
2022-08-19T10:40:49.602Z,2.20
2022-08-19T10:41:49.581Z,2.20
2022-08-19T10:42:49.553Z,2.30
2022-08-19T10:43:49.539Z,2.20
2022-08-19T10:44:49.532Z,2.20
2022-08-19T10:45:52.261Z,2.20
2022-08-19T10:46:49.577Z,2.80
2022-08-19T10:47:49.571Z,3.00
2022-08-19T10:48:49.494Z,2.30
2022-08-19T10:49:49.488Z,2.20
2022-08-19T10:50:49.480Z,2.30
2022-08-19T10:51:49.562Z,2.20
2022-08-19T10:52:50.618Z,2.20
2022-08-19T10:53:49.453Z,2.00
2022-08-19T10:54:49.457Z,2.30
2022-08-19T10:55:49.511Z,2.10
2022-08-19T10:56:49.432Z,2.10
2022-08-19T10:58:05.108Z,1.80
2022-08-19T10:58:51.405Z,2.30
2022-08-19T10:59:49.410Z,2.10
2022-08-19T11:00:49.416Z,2.10
2022-08-19T11:01:49.420Z,2.00
2022-08-19T11:02:49.379Z,2.00
2022-08-19T11:03:49.359Z,1.90
2022-08-19T11:04:49.353Z,2.20
2022-08-19T11:05:49.351Z,2.00
2022-08-19T11:06:49.351Z,2.40
2022-08-19T11:07:49.369Z,2.40
2022-08-19T11:08:49.314Z,2.40
2022-08-19T11:09:49.304Z,2.40
2022-08-19T11:10:50.393Z,2.40
2022-08-19T11:11:49.281Z,2.50
2022-08-19T11:12:49.483Z,2.00
2022-08-19T11:13:49.268Z,2.30
2022-08-19T11:14:49.255Z,2.30
2022-08-19T11:15:49.246Z,2.00
2022-08-19T11:16:49.233Z,2.10
2022-08-19T11:17:49.247Z,1.90
2022-08-19T11:18:49.222Z,2.00
2022-08-19T11:19:49.226Z,2.40
2022-08-19T11:20:49.206Z,2.10
2022-08-19T11:21:49.189Z,2.10
2022-08-19T11:22:49.196Z,2.20
2022-08-19T11:23:49.164Z,2.50
2022-08-19T11:24:49.162Z,2.10
2022-08-19T11:25:49.189Z,2.30
2022-08-19T11:26:49.143Z,1.90
2022-08-19T11:27:49.129Z,2.50
2022-08-19T11:28:49.110Z,2.40
2022-08-19T11:29:49.117Z,2.40
2022-08-19T11:30:49.113Z,2.60
2022-08-19T11:31:49.098Z,2.50
2022-08-19T11:32:49.656Z,2.70
2022-08-19T11:33:50.071Z,2.30
2022-08-19T11:34:49.107Z,2.80
2022-08-19T11:35:49.048Z,2.70
2022-08-19T11:36:49.038Z,3.00
2022-08-19T11:37:49.043Z,2.60
2022-08-19T11:38:49.030Z,2.50
2022-08-19T11:39:53.619Z,2.90
2022-08-19T11:40:50.032Z,2.40
2022-08-19T11:41:48.987Z,2.50
2022-08-19T11:42:48.982Z,2.40
2022-08-19T11:43:48.970Z,2.40
2022-08-19T11:44:48.955Z,2.40
2022-08-19T11:45:48.974Z,2.30
2022-08-19T11:46:49.007Z,2.10
2022-08-19T11:47:48.996Z,2.10
2022-08-19T11:48:48.920Z,2.20
2022-08-19T11:49:48.925Z,2.80
2022-08-19T11:50:48.901Z,2.70
2022-08-19T11:51:48.883Z,2.80
2022-08-19T11:52:48.877Z,2.40
2022-08-19T11:53:48.874Z,2.30
2022-08-19T11:54:48.889Z,2.40
2022-08-19T11:55:48.845Z,2.30
2022-08-19T11:56:48.872Z,2.50
2022-08-19T11:57:48.844Z,2.70
2022-08-19T11:58:48.818Z,2.60
2022-08-19T11:59:48.809Z,2.50
2022-08-19T12:00:48.803Z,2.10
2022-08-19T12:01:48.811Z,1.80
2022-08-19T12:02:48.792Z,1.60
2022-08-19T12:03:48.862Z,1.90
2022-08-19T12:04:48.769Z,1.70
2022-08-19T12:05:48.784Z,2.00
2022-08-19T12:06:48.751Z,2.00
2022-08-19T12:07:48.736Z,1.80
2022-08-19T12:08:48.732Z,2.20
2022-08-19T12:09:48.868Z,2.00
2022-08-19T12:10:48.719Z,2.40
2022-08-19T12:11:48.710Z,2.20
2022-08-19T12:12:58.879Z,2.40
2022-08-19T12:13:49.672Z,2.30
2022-08-19T12:14:48.666Z,2.00
2022-08-19T12:15:48.655Z,2.40
2022-08-19T12:16:51.455Z,2.20
2022-08-19T12:17:48.694Z,2.90
2022-08-19T12:18:48.637Z,2.70
2022-08-19T12:19:48.621Z,2.30
2022-08-19T12:20:48.603Z,2.10
2022-08-19T12:21:48.659Z,2.10
2022-08-19T12:22:48.605Z,2.20
2022-08-19T12:23:50.788Z,1.90
2022-08-19T12:24:49.569Z,1.90
2022-08-19T12:25:48.554Z,1.60
2022-08-19T12:26:52.948Z,1.60
2022-08-19T12:27:56.802Z,1.60
2022-08-19T12:28:49.520Z,1.50
2022-08-19T12:29:48.531Z,1.70
2022-08-19T12:30:48.503Z,1.90
2022-08-19T12:31:48.492Z,1.90
2022-08-19T12:32:48.489Z,1.40
2022-08-19T12:33:48.478Z,1.50
2022-08-19T12:34:48.485Z,1.50
2022-08-19T12:35:48.471Z,1.70
2022-08-19T12:36:48.449Z,1.80
2022-08-19T12:37:53.558Z,2.00
2022-08-19T12:38:49.424Z,1.90
2022-08-19T12:39:48.469Z,1.90
2022-08-19T12:40:48.406Z,1.70
2022-08-19T12:41:51.555Z,2.00
2022-08-19T12:42:49.408Z,1.90
2022-08-19T12:43:48.405Z,1.80
2022-08-19T12:44:48.371Z,1.70
2022-08-19T12:45:48.382Z,1.80
2022-08-19T12:46:48.368Z,1.80
2022-08-19T12:47:49.700Z,1.70
2022-08-19T12:48:48.320Z,1.80
2022-08-19T12:49:53.760Z,1.80
2022-08-19T12:50:48.337Z,2.00
2022-08-19T12:51:48.313Z,1.80
2022-08-19T12:52:48.294Z,1.80
2022-08-19T12:53:48.286Z,1.60
2022-08-19T12:54:48.266Z,1.80
2022-08-19T12:55:48.263Z,1.80
2022-08-19T12:56:48.274Z,1.80
2022-08-19T12:57:48.324Z,1.80
2022-08-19T12:58:50.552Z,1.90
2022-08-19T13:00:20.138Z,2.10
2022-08-19T13:00:48.236Z,1.90
2022-08-19T13:01:48.201Z,2.20
2022-08-19T13:02:48.210Z,2.20
2022-08-19T13:03:48.192Z,2.10
2022-08-19T13:04:48.183Z,2.10
2022-08-19T13:05:48.181Z,2.30
2022-08-19T13:06:48.157Z,2.10
2022-08-19T13:07:49.183Z,2.00
2022-08-19T13:08:48.144Z,2.00